KBVO/BVO METAR and TAF weather

Enter ICAO airport designator
Station Type Date Time Source
KBVO METAR 2018/12/10 17:53 UTC NOAA

KBVO 101753Z VRB04KT 10SM CLR 08/M04 A3037 RMK AO2 SLP286 I6000 T00781039 10078 21089 58008


Station Type Date Time Source
KBVO Decoded METAR 2018/12/10 17:53 UTC NOAA

BARTLESVILLE MUNICIPAL AIRPORT , OK, United States (KBVO) 36-46N 96-01W 210M
Dec 10, 2018 - 12:53 PM EST / 2018.12.10 1753 UTC
Wind: Variable at 5 MPH (4 KT):0
Visibility: 10 mile(s):0
Sky conditions: clear
Temperature: 46.0 F (7.8 C)
Dew Point: 25.0 F (-3.9 C)
Relative Humidity: 43%
Pressure (altimeter): 30.37 in. Hg (1028 hPa)
Pressure tendency: 0.02 inches (0.8 hPa) lower than three hours ago
ob: KBVO 101753Z VRB04KT 10SM CLR 08/M04 A3037 RMK AO2 SLP286 I6000 T00781039 10078 21089 58008
cycle: 18

Station Type Date Time Source
KBVO TAF 2018/12/10 18:22 UTC NOAA

TAF KBVO 101720Z 1018/1118 VRB03KT P6SM SKC
FM111500 18005KT P6SM SKC


Example: see airport list